createdAt,value
2018-09-28T00:01:03.912Z,12.90
2018-09-28T00:03:32.367Z,12.80
2018-09-28T00:06:00.782Z,12.80
2018-09-28T00:08:29.240Z,12.80
2018-09-28T00:10:57.663Z,12.80
2018-09-28T00:13:26.144Z,12.80
2018-09-28T00:15:54.597Z,12.70
2018-09-28T00:18:23.010Z,12.70
2018-09-28T00:20:51.454Z,12.70
2018-09-28T00:23:19.879Z,12.70
2018-09-28T00:25:48.331Z,12.70
2018-09-28T00:28:16.763Z,12.70
2018-09-28T00:30:45.208Z,12.60
2018-09-28T00:33:13.635Z,12.60
2018-09-28T00:35:42.140Z,12.60
2018-09-28T00:38:10.531Z,12.60
2018-09-28T00:40:39.008Z,12.60
2018-09-28T00:43:07.463Z,12.50
2018-09-28T00:45:35.915Z,12.40
2018-09-28T00:48:04.356Z,12.50
2018-09-28T00:50:32.846Z,12.30
2018-09-28T00:53:01.275Z,12.30
2018-09-28T00:55:29.719Z,12.30
2018-09-28T00:57:58.142Z,12.30
2018-09-28T01:00:26.587Z,12.30
2018-09-28T01:02:55.011Z,12.20
2018-09-28T01:05:23.494Z,12.20
2018-09-28T01:07:51.923Z,12.20
2018-09-28T01:10:20.375Z,12.10
2018-09-28T01:12:48.795Z,12.10
2018-09-28T01:15:17.239Z,12.10
2018-09-28T01:17:45.651Z,12.10
2018-09-28T01:20:14.097Z,12.00
2018-09-28T01:22:42.503Z,12.00
2018-09-28T01:25:10.983Z,12.00
2018-09-28T01:27:39.467Z,12.00
2018-09-28T01:30:08.045Z,11.90
2018-09-28T01:32:36.470Z,11.90
2018-09-28T01:35:04.952Z,11.90
2018-09-28T01:37:33.375Z,11.90
2018-09-28T01:40:01.835Z,11.90
2018-09-28T01:42:30.280Z,11.90
2018-09-28T01:44:58.731Z,11.90
2018-09-28T01:47:27.160Z,11.90
2018-09-28T01:49:55.600Z,11.80
2018-09-28T01:52:24.025Z,11.70
2018-09-28T01:54:52.499Z,11.70
2018-09-28T01:57:20.915Z,11.70
2018-09-28T01:59:49.351Z,11.70
2018-09-28T02:02:17.807Z,11.70
2018-09-28T02:04:46.214Z,11.70
2018-09-28T02:07:14.656Z,11.70
2018-09-28T02:09:43.075Z,11.70
2018-09-28T02:12:11.522Z,11.60
2018-09-28T02:14:39.948Z,11.60
2018-09-28T02:17:08.392Z,11.60
2018-09-28T02:19:36.807Z,11.60
2018-09-28T02:22:05.284Z,11.60
2018-09-28T02:24:33.699Z,11.60
2018-09-28T02:27:02.151Z,11.60
2018-09-28T02:29:30.591Z,11.60
2018-09-28T02:31:59.019Z,11.60
2018-09-28T02:34:27.447Z,11.60
2018-09-28T02:36:55.879Z,11.60
2018-09-28T02:39:24.307Z,11.60
2018-09-28T02:41:52.779Z,11.60
2018-09-28T02:44:21.211Z,11.60
2018-09-28T02:46:49.678Z,11.60
2018-09-28T02:49:18.179Z,11.60
2018-09-28T02:51:46.618Z,11.50
2018-09-28T02:54:15.045Z,11.50
2018-09-28T02:56:43.525Z,11.40
2018-09-28T02:59:11.968Z,11.40
2018-09-28T03:01:40.429Z,11.40
2018-09-28T03:04:08.871Z,11.40
2018-09-28T03:06:37.352Z,11.30
2018-09-28T03:09:08.023Z,11.40
2018-09-28T03:11:36.468Z,11.30
2018-09-28T03:14:04.891Z,11.30
2018-09-28T03:16:33.771Z,11.30
2018-09-28T03:19:02.271Z,11.20
2018-09-28T03:21:31.135Z,11.20
2018-09-28T03:23:59.683Z,11.20
2018-09-28T03:26:28.132Z,11.20
2018-09-28T03:28:56.548Z,11.20
2018-09-28T03:31:24.983Z,11.20
2018-09-28T03:33:53.414Z,11.20
2018-09-28T03:36:21.835Z,11.10
2018-09-28T03:38:50.256Z,11.10
2018-09-28T03:41:19.104Z,11.10
2018-09-28T03:43:47.563Z,11.10
2018-09-28T03:46:15.995Z,11.00
2018-09-28T03:48:44.494Z,11.00
2018-09-28T03:51:12.927Z,10.90
2018-09-28T03:53:41.366Z,10.90
2018-09-28T03:56:09.791Z,10.90
2018-09-28T03:58:38.267Z,10.90
2018-09-28T04:01:06.712Z,10.90
2018-09-28T04:03:35.190Z,10.80
2018-09-28T04:06:03.614Z,10.80
2018-09-28T04:08:32.043Z,10.80
2018-09-28T04:11:00.450Z,10.80
2018-09-28T04:13:28.891Z,10.80
2018-09-28T04:15:57.305Z,10.80
2018-09-28T04:18:25.782Z,10.80
2018-09-28T04:20:54.203Z,10.80
2018-09-28T04:23:22.669Z,10.80
2018-09-28T04:25:51.218Z,10.80
2018-09-28T04:28:19.653Z,10.80
2018-09-28T04:30:48.067Z,10.80
2018-09-28T04:33:16.491Z,10.80
2018-09-28T04:35:44.931Z,10.80
2018-09-28T04:38:13.364Z,10.90
2018-09-28T04:40:41.805Z,10.80
2018-09-28T04:43:10.244Z,10.80
2018-09-28T04:45:38.714Z,10.80
2018-09-28T04:48:07.160Z,10.70
2018-09-28T04:50:35.567Z,10.80
2018-09-28T04:53:03.999Z,10.80
2018-09-28T04:55:32.431Z,10.80
2018-09-28T04:58:00.895Z,10.80
2018-09-28T05:00:29.323Z,10.70
2018-09-28T05:02:57.772Z,10.70
2018-09-28T05:05:26.218Z,10.70
2018-09-28T05:07:54.822Z,10.70
2018-09-28T05:10:23.285Z,10.70
2018-09-28T05:12:51.703Z,10.70
2018-09-28T05:15:20.139Z,10.50
2018-09-28T05:17:48.554Z,10.50
2018-09-28T05:20:17.098Z,10.40
2018-09-28T05:22:45.559Z,10.40
2018-09-28T05:25:14.056Z,10.40
2018-09-28T05:27:42.491Z,10.40
2018-09-28T05:30:11.105Z,10.40
2018-09-28T05:32:39.690Z,10.50
2018-09-28T05:35:08.089Z,10.60
2018-09-28T05:37:36.515Z,10.60
2018-09-28T05:40:05.071Z,10.70
2018-09-28T05:42:33.510Z,10.70
2018-09-28T05:45:01.964Z,10.70
2018-09-28T05:47:30.369Z,10.70
2018-09-28T05:49:58.855Z,10.80
2018-09-28T05:52:27.260Z,10.80
2018-09-28T05:54:55.782Z,10.90
2018-09-28T05:57:24.386Z,10.90
2018-09-28T05:59:58.124Z,11.00
2018-09-28T06:02:31.770Z,11.10
2018-09-28T06:05:05.472Z,11.20
2018-09-28T06:07:33.905Z,11.20
2018-09-28T06:10:02.356Z,11.30
2018-09-28T06:12:30.782Z,11.40
2018-09-28T06:14:59.264Z,11.40
2018-09-28T06:17:27.682Z,11.40
2018-09-28T06:19:56.120Z,11.50
2018-09-28T06:22:24.819Z,11.50
2018-09-28T06:24:53.260Z,11.60
2018-09-28T06:27:21.670Z,11.60
2018-09-28T06:29:50.263Z,11.70
2018-09-28T06:32:18.664Z,11.70
2018-09-28T06:34:47.106Z,11.80
2018-09-28T06:37:15.571Z,11.90
2018-09-28T06:39:44.040Z,12.00
2018-09-28T06:42:12.530Z,12.10
2018-09-28T06:44:41.103Z,12.20
2018-09-28T06:47:09.492Z,12.20
2018-09-28T06:49:37.948Z,12.20
2018-09-28T06:52:06.375Z,12.30
2018-09-28T06:54:34.788Z,12.40
2018-09-28T06:57:03.239Z,12.40
2018-09-28T06:59:31.683Z,12.50
2018-09-28T07:02:00.136Z,12.60
2018-09-28T07:04:28.555Z,12.70
2018-09-28T07:06:57.099Z,12.70
2018-09-28T07:09:25.695Z,12.80
2018-09-28T07:11:54.137Z,12.90
2018-09-28T07:14:22.619Z,13.10
2018-09-28T07:16:51.161Z,13.20
2018-09-28T07:19:19.611Z,13.40
2018-09-28T07:21:48.127Z,13.50
2018-09-28T07:24:16.589Z,13.60
2018-09-28T07:26:45.091Z,13.60
2018-09-28T07:29:13.540Z,13.80
2018-09-28T07:31:42.003Z,13.90
2018-09-28T07:34:10.467Z,14.00
2018-09-28T07:36:39.280Z,14.10
2018-09-28T07:39:09.952Z,14.20
2018-09-28T07:41:38.494Z,14.40
2018-09-28T07:44:06.975Z,14.70
2018-09-28T07:46:35.475Z,14.70
2018-09-28T07:49:03.986Z,14.90
2018-09-28T07:51:32.448Z,15.00
2018-09-28T07:54:00.950Z,15.10
2018-09-28T07:56:29.439Z,15.20
2018-09-28T07:58:57.912Z,15.30
2018-09-28T08:01:26.343Z,15.30
2018-09-28T08:03:54.804Z,15.40
2018-09-28T08:06:23.288Z,15.40
2018-09-28T08:08:51.719Z,15.50
2018-09-28T08:11:20.176Z,15.50
2018-09-28T08:13:48.599Z,15.50
2018-09-28T08:16:17.042Z,15.50
2018-09-28T08:18:45.474Z,15.70
2018-09-28T08:21:13.942Z,15.70
2018-09-28T08:23:42.373Z,15.90
2018-09-28T08:26:10.842Z,16.00
2018-09-28T08:28:39.323Z,16.10
2018-09-28T08:31:07.792Z,16.10
2018-09-28T08:33:36.452Z,16.10
2018-09-28T08:36:04.956Z,16.30
2018-09-28T08:38:33.481Z,16.50
2018-09-28T08:41:02.003Z,16.60
2018-09-28T08:43:30.547Z,16.70
2018-09-28T08:45:58.923Z,16.90
2018-09-28T08:48:27.407Z,16.90
2018-09-28T08:50:55.882Z,16.90
2018-09-28T08:53:24.339Z,16.80
2018-09-28T08:55:52.835Z,16.70
2018-09-28T08:58:21.316Z,16.70
2018-09-28T09:00:49.747Z,16.80
2018-09-28T09:03:18.225Z,16.70
2018-09-28T09:05:46.674Z,16.80
2018-09-28T09:08:15.125Z,16.90
2018-09-28T09:10:43.595Z,17.10
2018-09-28T09:13:12.062Z,17.10
2018-09-28T09:15:40.496Z,17.30
2018-09-28T09:18:09.001Z,17.40
2018-09-28T09:20:37.426Z,17.40
2018-09-28T09:23:05.927Z,17.50
2018-09-28T09:25:34.376Z,17.60
2018-09-28T09:28:02.828Z,17.60
2018-09-28T09:30:31.263Z,17.60
2018-09-28T09:32:59.739Z,17.70
2018-09-28T09:35:28.235Z,17.60
2018-09-28T09:37:56.711Z,17.60
2018-09-28T09:40:25.195Z,17.80
2018-09-28T09:42:53.661Z,17.80
2018-09-28T09:45:22.129Z,17.70
2018-09-28T09:47:50.589Z,17.80
2018-09-28T09:50:19.145Z,17.80
2018-09-28T09:52:47.614Z,18.00
2018-09-28T09:55:16.077Z,18.20
2018-09-28T09:57:44.767Z,18.10
2018-09-28T10:00:17.432Z,18.10
2018-09-28T10:02:51.394Z,18.30
2018-09-28T10:05:19.847Z,18.40
2018-09-28T10:07:48.303Z,18.20
2018-09-28T10:10:16.792Z,18.20
2018-09-28T10:12:45.352Z,18.30
2018-09-28T10:15:13.813Z,18.40
2018-09-28T10:17:42.283Z,18.40
2018-09-28T10:20:10.775Z,18.50
2018-09-28T10:22:39.235Z,18.60
2018-09-28T10:25:07.771Z,18.70
2018-09-28T10:27:36.373Z,18.60
2018-09-28T10:30:04.846Z,18.70
2018-09-28T10:32:33.328Z,18.80
2018-09-28T10:35:01.799Z,19.00
2018-09-28T10:37:30.257Z,18.90
2018-09-28T10:39:58.743Z,18.90
2018-09-28T10:42:27.255Z,19.10
2018-09-28T10:44:55.768Z,19.20
2018-09-28T10:47:24.227Z,19.20
2018-09-28T10:49:52.698Z,19.10
2018-09-28T10:52:21.340Z,19.20
2018-09-28T10:54:49.665Z,19.30
2018-09-28T10:57:18.225Z,19.20
2018-09-28T10:59:46.700Z,19.40
2018-09-28T11:02:15.203Z,19.40
2018-09-28T11:04:43.751Z,19.30
2018-09-28T11:07:12.170Z,19.30
2018-09-28T11:09:40.712Z,19.40
2018-09-28T11:12:09.132Z,19.40
2018-09-28T11:14:37.641Z,19.70
2018-09-28T11:17:06.136Z,19.50
2018-09-28T11:19:34.602Z,19.70
2018-09-28T11:22:03.076Z,19.70
2018-09-28T11:24:31.568Z,19.80
2018-09-28T11:27:00.170Z,19.70
2018-09-28T11:29:28.671Z,19.70
2018-09-28T11:31:57.119Z,19.70
2018-09-28T11:34:25.594Z,19.80
2018-09-28T11:36:54.068Z,19.90
2018-09-28T11:39:22.607Z,19.80
2018-09-28T11:41:51.023Z,19.70
2018-09-28T11:44:19.520Z,19.80
2018-09-28T11:46:47.959Z,19.80
2018-09-28T11:49:16.524Z,19.90
2018-09-28T11:51:45.028Z,20.10
2018-09-28T11:54:13.472Z,20.10
2018-09-28T11:56:41.931Z,19.90
2018-09-28T11:59:10.446Z,20.00
2018-09-28T12:01:38.895Z,20.00
2018-09-28T12:04:07.726Z,19.90
2018-09-28T12:06:36.349Z,20.00
2018-09-28T12:09:07.475Z,20.20
2018-09-28T12:11:35.956Z,20.30
2018-09-28T12:14:04.477Z,20.30
2018-09-28T12:16:32.954Z,20.30
2018-09-28T12:19:01.469Z,20.40
2018-09-28T12:21:30.019Z,20.20
2018-09-28T12:23:58.478Z,20.10
2018-09-28T12:26:26.956Z,20.10
2018-09-28T12:28:55.425Z,20.20
2018-09-28T12:31:23.914Z,20.40
2018-09-28T12:33:52.375Z,20.30
2018-09-28T12:36:20.950Z,20.40
2018-09-28T12:38:49.355Z,20.40
2018-09-28T12:41:17.918Z,20.50
2018-09-28T12:43:46.396Z,20.60
2018-09-28T12:46:14.879Z,20.40
2018-09-28T12:48:43.373Z,20.50
2018-09-28T12:51:12.161Z,20.50
2018-09-28T12:53:40.638Z,20.20
2018-09-28T12:56:09.139Z,20.30
2018-09-28T12:58:37.630Z,20.10
2018-09-28T13:01:06.189Z,20.20
2018-09-28T13:03:34.621Z,20.40
2018-09-28T13:06:03.109Z,20.60
2018-09-28T13:08:31.658Z,20.60
2018-09-28T13:11:00.245Z,20.60
2018-09-28T13:13:28.811Z,20.70
2018-09-28T13:15:57.385Z,20.80
2018-09-28T13:18:28.300Z,21.00
2018-09-28T13:20:56.810Z,20.60
2018-09-28T13:23:25.245Z,20.60
2018-09-28T13:25:53.770Z,20.70
2018-09-28T13:28:22.242Z,20.70
2018-09-28T13:30:50.859Z,20.60
2018-09-28T13:33:19.445Z,20.70
2018-09-28T13:35:47.968Z,20.60
2018-09-28T13:38:16.625Z,20.60
2018-09-28T13:40:45.114Z,20.70
2018-09-28T13:43:13.635Z,20.80
2018-09-28T13:45:42.172Z,21.00
2018-09-28T13:48:11.013Z,20.90
2018-09-28T13:50:39.566Z,20.80
2018-09-28T13:53:08.169Z,20.60
2018-09-28T13:55:36.720Z,20.70
2018-09-28T13:58:05.348Z,20.70
2018-09-28T14:00:33.858Z,20.70
2018-09-28T14:03:02.338Z,20.60
2018-09-28T14:05:30.918Z,20.60
2018-09-28T14:07:59.506Z,20.60
2018-09-28T14:10:28.096Z,20.60
2018-09-28T14:12:56.616Z,20.70
2018-09-28T14:15:25.119Z,20.80
2018-09-28T14:17:53.600Z,20.90
2018-09-28T14:20:22.144Z,20.60
2018-09-28T14:22:50.727Z,20.50
2018-09-28T14:25:19.101Z,20.50
2018-09-28T14:27:47.596Z,20.50
2018-09-28T14:30:16.113Z,20.40
2018-09-28T14:32:44.561Z,20.30
2018-09-28T14:35:13.131Z,20.30
2018-09-28T14:37:41.700Z,20.40
2018-09-28T14:40:10.928Z,20.30
2018-09-28T14:42:39.896Z,20.20
2018-09-28T14:45:08.593Z,20.30
2018-09-28T14:47:37.116Z,20.30
2018-09-28T14:50:05.642Z,20.30
2018-09-28T14:52:34.180Z,20.30
2018-09-28T14:55:02.699Z,20.20
2018-09-28T14:57:31.185Z,20.40
2018-09-28T14:59:59.688Z,20.40
2018-09-28T15:02:28.201Z,20.40
2018-09-28T15:04:56.629Z,20.20
2018-09-28T15:07:25.201Z,20.00
2018-09-28T15:09:53.655Z,20.00
2018-09-28T15:12:22.133Z,20.10
2018-09-28T15:14:50.763Z,20.10
2018-09-28T15:17:19.332Z,20.00
2018-09-28T15:19:47.798Z,20.00
2018-09-28T15:22:16.289Z,20.00
2018-09-28T15:24:44.776Z,20.10
2018-09-28T15:27:13.271Z,20.10
2018-09-28T15:29:41.785Z,20.10
2018-09-28T15:32:10.396Z,20.00
2018-09-28T15:34:38.875Z,20.00
2018-09-28T15:37:07.419Z,20.00
2018-09-28T15:39:35.928Z,19.90
2018-09-28T15:42:04.461Z,19.80
2018-09-28T15:44:32.967Z,19.80
2018-09-28T15:47:01.460Z,19.70
2018-09-28T15:49:29.971Z,19.70
2018-09-28T15:51:58.552Z,19.70
2018-09-28T15:54:27.055Z,19.70
2018-09-28T15:56:55.501Z,19.60
2018-09-28T15:59:24.029Z,19.70
2018-09-28T16:01:52.504Z,19.60
2018-09-28T16:04:21.012Z,19.50
2018-09-28T16:06:49.504Z,19.50
2018-09-28T16:09:17.992Z,19.50
2018-09-28T16:11:46.437Z,19.40
2018-09-28T16:14:14.947Z,19.40
2018-09-28T16:16:43.438Z,19.30
2018-09-28T16:19:11.972Z,19.30
2018-09-28T16:21:40.465Z,19.20
2018-09-28T16:24:08.971Z,19.20
2018-09-28T16:26:37.523Z,19.20
2018-09-28T16:29:06.139Z,19.20
2018-09-28T16:31:34.608Z,19.10
2018-09-28T16:34:03.148Z,19.10
2018-09-28T16:36:31.657Z,19.10
2018-09-28T16:39:00.155Z,19.10
2018-09-28T16:41:28.674Z,19.10
2018-09-28T16:43:57.172Z,19.00
2018-09-28T16:46:25.628Z,19.00
2018-09-28T16:48:54.269Z,18.90
2018-09-28T16:51:22.905Z,18.90
2018-09-28T16:53:51.638Z,18.80
2018-09-28T16:56:20.104Z,18.80
2018-09-28T16:58:48.625Z,18.70
2018-09-28T17:01:17.142Z,18.70
2018-09-28T17:03:45.716Z,18.60
2018-09-28T17:06:14.373Z,18.60
2018-09-28T17:08:42.880Z,18.50
2018-09-28T17:11:11.443Z,18.50
2018-09-28T17:13:39.908Z,18.50
2018-09-28T17:16:08.379Z,18.40
2018-09-28T17:18:36.823Z,18.20
2018-09-28T17:21:05.295Z,18.10
2018-09-28T17:23:33.868Z,18.10
2018-09-28T17:26:02.332Z,18.00
2018-09-28T17:28:30.847Z,17.80
2018-09-28T17:30:59.308Z,17.80
2018-09-28T17:33:27.787Z,17.70
2018-09-28T17:35:56.382Z,17.60
2018-09-28T17:38:24.840Z,17.60
2018-09-28T17:40:53.375Z,17.50
2018-09-28T17:43:21.859Z,17.40
2018-09-28T17:45:50.327Z,17.30
2018-09-28T17:48:18.807Z,17.30
2018-09-28T17:50:47.283Z,17.20
2018-09-28T17:53:15.762Z,17.20
2018-09-28T17:55:44.271Z,17.10
2018-09-28T17:58:12.721Z,17.00
2018-09-28T18:00:41.181Z,17.00
2018-09-28T18:03:09.635Z,16.90
2018-09-28T18:05:38.149Z,16.90
2018-09-28T18:08:06.737Z,16.70
2018-09-28T18:10:35.219Z,16.70
2018-09-28T18:13:03.697Z,16.60
2018-09-28T18:15:32.167Z,16.40
2018-09-28T18:18:00.639Z,16.40
2018-09-28T18:20:29.137Z,16.20
2018-09-28T18:22:57.603Z,16.10
2018-09-28T18:25:26.084Z,16.10
2018-09-28T18:27:54.537Z,16.00
2018-09-28T18:30:23.007Z,15.90
2018-09-28T18:32:51.471Z,15.80
2018-09-28T18:35:19.943Z,15.70
2018-09-28T18:37:48.401Z,15.60
2018-09-28T18:40:16.923Z,15.40
2018-09-28T18:42:45.384Z,15.40
2018-09-28T18:45:13.871Z,15.30
2018-09-28T18:47:42.336Z,15.30
2018-09-28T18:50:10.905Z,15.20
2018-09-28T18:52:39.322Z,15.10
2018-09-28T18:55:07.575Z,15.10
2018-09-28T18:57:36.024Z,15.10
2018-09-28T19:00:04.660Z,15.10
2018-09-28T19:02:33.128Z,15.00
2018-09-28T19:05:01.610Z,14.90
2018-09-28T19:07:30.105Z,14.90
2018-09-28T19:09:58.567Z,14.80
2018-09-28T19:12:27.086Z,14.70
2018-09-28T19:14:55.547Z,14.60
2018-09-28T19:17:24.065Z,14.60
2018-09-28T19:19:52.500Z,14.50
2018-09-28T19:22:21.139Z,14.40
2018-09-28T19:24:49.616Z,14.30
2018-09-28T19:27:18.090Z,14.30
2018-09-28T19:29:46.554Z,14.20
2018-09-28T19:32:15.032Z,14.10
2018-09-28T19:34:43.502Z,14.10
2018-09-28T19:37:11.965Z,14.10
2018-09-28T19:39:40.431Z,14.10
2018-09-28T19:42:08.944Z,14.10
2018-09-28T19:44:37.419Z,14.00
2018-09-28T19:47:05.951Z,13.90
2018-09-28T19:49:34.444Z,13.80
2018-09-28T19:52:02.902Z,13.80
2018-09-28T19:54:31.340Z,13.80
2018-09-28T19:56:59.821Z,13.70
2018-09-28T19:59:28.295Z,13.60
2018-09-28T20:01:56.832Z,13.60
2018-09-28T20:04:25.338Z,13.40
2018-09-28T20:06:54.091Z,13.30
2018-09-28T20:09:22.660Z,13.10
2018-09-28T20:11:51.142Z,13.00
2018-09-28T20:14:19.824Z,12.90
2018-09-28T20:16:48.431Z,12.80
2018-09-28T20:19:16.911Z,12.80
2018-09-28T20:21:45.491Z,12.80
2018-09-28T20:24:14.102Z,12.80
2018-09-28T20:26:42.688Z,12.80
2018-09-28T20:29:11.142Z,12.80
2018-09-28T20:31:39.628Z,12.80
2018-09-28T20:34:08.161Z,12.70
2018-09-28T20:36:36.626Z,12.80
2018-09-28T20:39:08.710Z,12.80
2018-09-28T20:41:37.357Z,12.80
2018-09-28T20:44:05.899Z,12.80
2018-09-28T20:46:34.404Z,12.90
2018-09-28T20:49:02.944Z,12.90
2018-09-28T20:51:31.367Z,12.80
2018-09-28T20:54:00.237Z,12.80
2018-09-28T20:56:28.731Z,12.80
2018-09-28T20:58:57.246Z,12.80
2018-09-28T21:01:25.867Z,12.80
2018-09-28T21:03:54.331Z,12.80
2018-09-28T21:06:22.808Z,12.80
2018-09-28T21:08:51.358Z,12.80
2018-09-28T21:11:19.817Z,12.70
2018-09-28T21:13:48.329Z,12.80
2018-09-28T21:16:16.819Z,12.70
2018-09-28T21:18:45.288Z,12.80
2018-09-28T21:21:13.767Z,12.70
2018-09-28T21:23:42.263Z,12.70
2018-09-28T21:26:10.752Z,12.70
2018-09-28T21:28:39.208Z,12.70
2018-09-28T21:31:08.228Z,12.70
2018-09-28T21:33:36.739Z,12.70
2018-09-28T21:36:05.251Z,12.70
2018-09-28T21:38:33.726Z,12.70
2018-09-28T21:41:02.218Z,12.60
2018-09-28T21:43:30.952Z,12.70
2018-09-28T21:45:59.463Z,12.60
2018-09-28T21:48:27.949Z,12.60
2018-09-28T21:50:56.478Z,12.50
2018-09-28T21:53:24.984Z,12.50
2018-09-28T21:55:53.432Z,12.50
2018-09-28T21:58:21.907Z,12.50
2018-09-28T22:00:55.939Z,12.50
2018-09-28T22:03:24.659Z,12.60
2018-09-28T22:05:53.224Z,12.50
2018-09-28T22:08:21.730Z,12.50
2018-09-28T22:10:50.235Z,12.50
2018-09-28T22:13:18.690Z,12.50
2018-09-28T22:15:47.145Z,12.50
2018-09-28T22:18:15.619Z,12.50
2018-09-28T22:20:44.055Z,12.60
2018-09-28T22:23:12.513Z,12.50
2018-09-28T22:25:40.955Z,12.50
2018-09-28T22:28:09.431Z,12.50
2018-09-28T22:30:37.872Z,12.60
2018-09-28T22:33:06.435Z,12.60
2018-09-28T22:35:34.883Z,12.60
2018-09-28T22:38:03.371Z,12.60
2018-09-28T22:40:31.925Z,12.60
2018-09-28T22:43:00.377Z,12.70
2018-09-28T22:45:28.892Z,12.80
2018-09-28T22:47:57.343Z,12.70
2018-09-28T22:50:25.826Z,12.70
2018-09-28T22:52:54.312Z,12.70
2018-09-28T22:55:22.822Z,12.70
2018-09-28T22:57:51.270Z,12.70
2018-09-28T23:00:19.727Z,12.70
2018-09-28T23:02:48.427Z,12.70
2018-09-28T23:05:16.873Z,12.70
2018-09-28T23:07:45.331Z,12.70
2018-09-28T23:10:13.788Z,12.70
2018-09-28T23:12:42.247Z,12.70
2018-09-28T23:15:10.715Z,12.70
2018-09-28T23:17:39.169Z,12.70
2018-09-28T23:20:07.703Z,12.70
2018-09-28T23:22:36.250Z,12.60
2018-09-28T23:25:04.860Z,12.60
2018-09-28T23:27:33.447Z,12.60
2018-09-28T23:30:04.114Z,12.60
2018-09-28T23:32:32.595Z,12.60
2018-09-28T23:35:01.134Z,12.60
2018-09-28T23:37:29.594Z,12.70
2018-09-28T23:39:58.080Z,12.70
2018-09-28T23:42:26.579Z,12.70
2018-09-28T23:44:55.056Z,12.70
2018-09-28T23:47:24.092Z,12.70
2018-09-28T23:49:52.579Z,12.70
2018-09-28T23:52:21.036Z,12.70
2018-09-28T23:54:49.537Z,12.70
2018-09-28T23:57:19.748Z,12.60
2018-09-28T23:59:48.253Z,12.60
